Time;durP1;ratioP1;P1;durP2;ratioP2;P2;SDS_P1;SDS_P2;PMS_P1;PMS_P2;Temp;Humidity;BMP_temperature;BMP_pressure;BME280_temperature;BME280_humidity;BME280_pressure;Samples;Min_cycle;Max_cycle;Signal;HPM_P1;HPM_P2
2023/05/08 05:26:20;;;;;;;2.73;2.03;;;12.00;99.90;;;;;;5135008;27;20271;-79
2023/05/08 05:33:57;;;;;;;2.40;2.20;;;;;;;;;;5133930;27;20465;-79
2023/05/08 06:40:45;;;;;;;2.17;1.80;;;12.30;99.90;;;;;;5154976;27;20278;-80
2023/05/08 06:48:20;;;;;;;1.90;1.30;;;;;;;;;;5134583;27;20287;-81
2023/05/08 06:53:57;;;;;;;2.30;1.30;;;;;;;;;;5135350;27;20297;-81
2023/05/08 06:59:27;;;;;;;2.63;1.50;;;12.60;99.90;;;;;;5134487;27;20614;-80
2023/05/08 07:03:51;;;;;;;1.50;1.40;;;;;;;;;;5134941;27;20271;-80
2023/05/08 07:08:12;;;;;;;2.80;1.40;;;12.80;99.90;;;;;;5134967;27;20753;-81
2023/05/08 07:12:08;;;;;;;2.53;1.60;;;;;;;;;;5135581;27;20272;-80
2023/05/08 07:16:33;;;;;;;3.03;1.47;;;13.10;99.90;;;;;;5136256;27;20621;-81
2023/05/08 07:21:03;;;;;;;1.67;1.30;;;;;;;;;;5115002;27;20948;-81
2023/05/08 07:26:39;;;;;;;3.80;1.20;;;;;;;;;;5135854;27;20275;-81
2023/05/08 07:32:38;;;;;;;1.87;1.20;;;;;;;;;;5134981;27;20736;-79
2023/05/08 07:36:35;;;;;;;1.30;1.20;;;12.60;99.90;;;;;;5134573;27;20275;-79
2023/05/08 07:40:20;;;;;;;1.50;1.40;;;;;;;;;;5134639;27;20274;-79
2023/05/08 07:44:20;;;;;;;2.33;1.20;;;12.50;99.90;;;;;;5135224;27;20732;-79
2023/05/08 07:48:38;;;;;;;2.50;1.30;;;;;;;;;;5134600;27;20296;-79
2023/05/08 07:53:19;;;;;;;2.40;0.97;;;12.90;99.90;;;;;;5135080;27;20278;-79
2023/05/08 07:56:57;;;;;;;1.30;1.17;;;;;;;;;;5114671;27;20573;-79
2023/05/08 07:59:23;;;;;;;4.70;1.20;;;13.30;99.90;;;;;;5113379;28;20203;-79
2023/05/08 08:01:48;;;;;;;2.00;1.40;;;13.30;99.90;;;;;;5112729;28;20175;-79
2023/05/08 08:04:14;;;;;;;1.40;1.30;;;13.70;99.90;;;;;;5112708;28;20175;-79
2023/05/08 08:06:40;;;;;;;1.50;1.37;;;13.70;99.90;;;;;;5112305;28;20175;-79
2023/05/08 08:09:05;;;;;;;3.87;1.80;;;13.80;99.90;;;;;;5114139;28;20188;-79
2023/05/08 08:11:31;;;;;;;1.57;1.47;;;13.80;99.90;;;;;;5113685;28;20633;-80
2023/05/08 08:13:57;;;;;;;1.60;1.27;;;;;;;;;;5114603;28;20529;-80
2023/05/08 08:16:23;;;;;;;2.90;1.20;;;13.90;99.90;;;;;;5114758;28;20549;-79
2023/05/08 08:18:51;;;;;;;1.83;1.30;;;13.90;99.90;;;;;;5112600;28;20221;-79
2023/05/08 08:21:17;;;;;;;2.07;1.43;;;14.30;99.90;;;;;;5114152;28;20164;-79
2023/05/08 08:23:43;;;;;;;2.40;1.23;;;14.30;99.90;;;;;;5113273;28;20203;-79
2023/05/08 08:26:08;;;;;;;3.20;1.30;;;14.50;99.90;;;;;;5111576;28;20180;-79
2023/05/08 08:28:34;;;;;;;2.90;1.13;;;14.60;99.90;;;;;;5112489;28;20692;-80
2023/05/08 08:31:00;;;;;;;1.50;1.20;;;14.70;99.90;;;;;;5111557;28;20176;-79
2023/05/08 08:33:28;;;;;;;3.43;1.30;;;14.80;99.90;;;;;;5112915;28;20765;-79
2023/05/08 08:35:54;;;;;;;1.40;1.30;;;14.70;99.90;;;;;;5112530;28;20200;-80
2023/05/08 08:38:20;;;;;;;2.73;1.00;;;14.60;99.90;;;;;;5112043;28;20225;-79
2023/05/08 08:40:46;;;;;;;1.17;1.00;;;14.60;99.90;;;;;;5112797;28;20163;-80
2023/05/08 08:43:12;;;;;;;1.83;1.00;;;14.60;99.90;;;;;;5111005;28;20177;-79
2023/05/08 08:45:38;;;;;;;1.40;1.30;;;14.60;99.90;;;;;;5112474;28;20257;-80
2023/05/08 08:48:08;;;;;;;4.33;1.37;;;14.70;99.90;;;;;;5111408;28;20199;-79
2023/05/08 08:50:35;;;;;;;1.30;1.10;;;14.70;99.90;;;;;;5112412;28;20175;-80
2023/05/08 08:53:13;;;;;;;1.57;1.10;;;14.60;99.90;;;;;;5110998;28;20176;-80
2023/05/08 08:55:42;;;;;;;2.70;1.20;;;14.60;99.90;;;;;;5111956;28;20228;-80
2023/05/08 08:58:41;;;;;;;1.40;1.30;;;14.50;99.90;;;;;;5111065;28;20200;-79
2023/05/08 09:01:08;;;;;;;1.83;1.30;;;14.50;99.90;;;;;;5112264;28;20178;-79
2023/05/08 09:03:34;;;;;;;1.57;1.30;;;14.40;99.90;;;;;;5111866;28;20254;-80
2023/05/08 09:06:00;;;;;;;4.23;1.23;;;14.40;99.90;;;;;;5111205;28;20634;-80
2023/05/08 09:08:26;;;;;;;1.50;1.20;;;14.30;99.90;;;;;;5097613;28;20556;-80
2023/05/08 09:10:55;;;;;;;2.07;1.33;;;14.30;99.90;;;;;;5098509;28;20173;-79
2023/05/08 09:13:21;;;;;;;1.53;1.40;;;14.40;99.90;;;;;;5097627;28;20173;-79
2023/05/08 09:15:49;;;;;;;2.47;1.33;;;14.40;99.90;;;;;;5098279;28;20723;-79
2023/05/08 09:18:14;;;;;;;1.60;1.33;;;14.40;99.90;;;;;;5097137;28;20666;-80
2023/05/08 09:20:40;;;;;;;3.30;1.50;;;14.50;99.90;;;;;;5097127;28;20176;-80
2023/05/08 09:23:06;;;;;;;1.60;1.50;;;14.40;99.90;;;;;;5098631;28;20179;-80
2023/05/08 09:25:42;;;;;;;1.57;1.40;;;14.40;99.90;;;;;;5096888;28;20197;-80
2023/05/08 09:28:28;;;;;;;2.20;1.20;;;14.60;99.90;;;;;;5098509;28;20196;-79
2023/05/08 09:30:58;;;;;;;1.60;1.50;;;14.60;99.90;;;;;;5097839;28;20653;-79
2023/05/08 09:33:25;;;;;;;1.60;1.30;;;14.60;99.90;;;;;;5098274;28;20668;-79
2023/05/08 09:35:52;;;;;;;1.20;1.07;;;14.60;99.90;;;;;;5097206;28;20272;-80
2023/05/08 09:38:37;;;;;;;1.80;1.70;;;14.60;99.90;;;;;;5096925;28;20199;-79
2023/05/08 09:41:10;;;;;;;5.77;4.97;;;14.80;99.90;;;;;;5098047;28;20201;-80
2023/05/08 09:43:37;;;;;;;2.23;1.50;;;15.00;99.90;;;;;;5096887;28;20175;-80
2023/05/08 09:46:21;;;;;;;5.50;5.00;;;15.10;99.90;;;;;;5098454;28;20178;-80
2023/05/08 09:48:51;;;;;;;1.60;1.40;;;15.10;99.90;;;;;;5097074;28;20201;-80
2023/05/08 09:51:17;;;;;;;1.50;1.40;;;15.20;99.90;;;;;;5098331;28;20668;-80
2023/05/08 09:53:43;;;;;;;1.67;1.40;;;15.10;99.90;;;;;;5096183;28;20179;-80
2023/05/08 09:56:09;;;;;;;1.80;1.53;;;15.10;99.90;;;;;;5096977;28;20703;-80
2023/05/08 09:58:42;;;;;;;1.50;1.40;;;15.20;99.90;;;;;;5098167;28;20265;-80
2023/05/08 10:01:33;;;;;;;1.87;1.60;;;15.30;99.90;;;;;;5096949;28;20171;-80
2023/05/08 10:04:00;;;;;;;1.40;1.30;;;15.30;99.90;;;;;;5098763;28;20192;-80
2023/05/08 10:06:27;;;;;;;2.43;1.40;;;15.30;99.90;;;;;;5098014;28;20693;-79
2023/05/08 10:09:05;;;;;;;2.80;1.50;;;15.20;99.90;;;;;;5098836;28;20194;-81
2023/05/08 10:11:31;;;;;;;2.47;1.30;;;15.20;99.90;;;;;;5099329;28;20536;-80
2023/05/08 10:13:57;;;;;;;2.10;1.20;;;15.10;99.90;;;;;;5097545;28;20181;-81
2023/05/08 10:16:23;;;;;;;2.20;1.30;;;15.30;99.90;;;;;;5098040;28;20205;-81
2023/05/08 10:18:50;;;;;;;1.50;1.30;;;15.30;99.90;;;;;;5097454;28;20268;-80
2023/05/08 10:21:17;;;;;;;3.53;1.40;;;15.50;99.90;;;;;;5095980;28;20678;-82
2023/05/08 10:23:45;;;;;;;2.27;1.47;;;15.60;99.90;;;;;;5095584;28;20179;-80
2023/05/08 10:26:24;;;;;;;1.47;1.37;;;15.60;99.90;;;;;;5095792;28;20198;-80
2023/05/08 10:29:06;;;;;;;3.13;1.57;;;15.70;99.90;;;;;;5095630;28;20201;-80
2023/05/08 10:31:34;;;;;;;2.73;1.60;;;15.70;99.90;;;;;;5097043;28;20172;-80
2023/05/08 10:34:02;;;;;;;1.77;1.67;;;15.90;99.90;;;;;;5096221;28;20691;-80
2023/05/08 10:36:30;;;;;;;2.10;1.33;;;15.90;99.90;;;;;;5096375;28;20226;-81
2023/05/08 10:38:59;;;;;;;1.83;1.70;;;16.00;99.90;;;;;;5094647;28;20204;-80
2023/05/08 10:41:25;;;;;;;1.90;1.50;;;16.10;99.90;;;;;;5096447;28;20649;-80
2023/05/08 10:43:52;;;;;;;1.83;1.70;;;16.20;99.90;;;;;;5078983;28;20210;-80
2023/05/08 10:46:29;;;;;;;1.50;1.40;;;16.30;99.90;;;;;;5096176;28;20174;-80
2023/05/08 10:49:06;;;;;;;3.47;1.73;;;16.30;99.90;;;;;;5096009;28;20203;-80
2023/05/08 10:51:40;;;;;;;1.63;1.50;;;16.30;99.90;;;;;;5096340;28;20218;-80
2023/05/08 10:54:21;;;;;;;2.00;1.80;;;16.40;99.90;;;;;;5095846;28;20392;-81
2023/05/08 10:56:47;;;;;;;1.67;1.57;;;16.50;99.90;;;;;;5095810;28;20221;-80
2023/05/08 10:59:18;;;;;;;2.33;1.90;;;16.80;99.90;;;;;;5096758;28;20219;-80
2023/05/08 11:01:48;;;;;;;1.70;1.60;;;16.70;99.90;;;;;;5093790;28;20176;-80
2023/05/08 11:04:22;;;;;;;2.23;1.97;;;16.90;99.90;;;;;;5095532;28;20169;-80
2023/05/08 11:06:51;;;;;;;1.70;1.60;;;17.20;99.90;;;;;;5094693;28;20727;-81
2023/05/08 11:09:21;;;;;;;2.77;2.23;;;17.30;99.90;;;;;;5097179;28;20188;-79
2023/05/08 11:12:07;;;;;;;5.07;4.10;;;17.10;99.90;;;;;;5095679;28;20233;-80
2023/05/08 11:14:39;;;;;;;4.20;3.80;;;16.80;99.90;;;;;;5096600;28;20171;-80
2023/05/08 11:17:07;;;;;;;5.70;4.87;;;16.60;99.90;;;;;;5097554;28;20252;-81
2023/05/08 11:19:33;;;;;;;5.27;4.47;;;16.40;99.90;;;;;;5097672;28;20187;-81
2023/05/08 11:22:11;;;;;;;6.03;4.33;;;16.40;99.90;;;;;;5097827;28;20173;-81
2023/05/08 11:24:38;;;;;;;5.63;3.80;;;16.30;99.90;;;;;;5096448;28;20229;-81
2023/05/08 11:27:04;;;;;;;5.00;4.60;;;16.30;99.90;;;;;;5096395;28;20531;-81
2023/05/08 11:29:30;;;;;;;5.80;3.63;;;16.60;99.90;;;;;;5095592;28;20190;-81
2023/05/08 11:31:56;;;;;;;5.57;5.07;;;17.10;99.90;;;;;;5097740;28;20199;-80
2023/05/08 11:34:40;;;;;;;6.30;4.70;;;17.60;99.90;;;;;;5097306;28;20169;-81
2023/05/08 11:37:22;;;;;;;8.73;6.13;;;18.00;99.90;;;;;;5097537;28;20177;-81
2023/05/08 11:39:49;;;;;;;5.70;5.10;;;18.10;99.90;;;;;;5096962;28;20197;-81
2023/05/08 11:42:24;;;;;;;5.90;5.00;;;17.90;99.90;;;;;;5096337;28;20174;-81
2023/05/08 11:45:12;;;;;;;5.47;4.97;;;17.60;99.90;;;;;;5096887;28;20174;-81
2023/05/08 11:47:40;;;;;;;5.60;5.00;;;17.40;99.90;;;;;;5097402;28;20306;-81
2023/05/08 11:50:07;;;;;;;4.60;4.20;;;17.60;99.90;;;;;;5096141;28;20493;-80
2023/05/08 11:52:35;;;;;;;4.50;4.10;;;17.50;99.90;;;;;;5096676;28;20197;-81
2023/05/08 11:55:11;;;;;;;4.83;4.40;;;17.00;99.90;;;;;;5097913;28;20212;-81
2023/05/08 11:57:37;;;;;;;4.83;4.37;;;16.30;99.90;;;;;;5098308;28;20189;-81
2023/05/08 12:00:10;;;;;;;5.20;4.70;;;16.00;99.90;;;;;;5098030;28;20174;-81
2023/05/08 12:02:37;;;;;;;6.30;5.70;;;15.80;99.90;;;;;;5096854;28;20175;-81
2023/05/08 12:05:03;;;;;;;5.83;4.80;;;15.60;99.90;;;;;;5099021;28;20181;-81
2023/05/08 12:07:29;;;;;;;7.63;4.80;;;15.50;99.90;;;;;;5097441;28;20187;-81
2023/05/08 12:09:55;;;;;;;6.43;5.17;;;15.50;99.90;;;;;;5105388;28;20181;-81
2023/05/08 12:12:20;;;;;;;6.40;5.07;;;15.40;99.90;;;;;;5095836;28;20206;-81
2023/05/08 12:14:50;;;;;;;7.47;6.50;;;15.40;99.90;;;;;;5095156;28;20326;-81
2023/05/08 12:17:17;;;;;;;9.80;6.43;;;15.30;99.90;;;;;;5094653;28;20191;-80
2023/05/08 12:19:43;;;;;;;7.70;6.87;;;15.20;99.90;;;;;;5094627;28;20179;-80
2023/05/08 12:22:09;;;;;;;9.03;7.00;;;15.00;99.90;;;;;;5096918;28;20176;-81
2023/05/08 12:24:35;;;;;;;8.77;6.80;;;15.00;99.90;;;;;;5095407;28;20171;-80
2023/05/08 12:27:00;;;;;;;7.80;7.00;;;15.00;99.90;;;;;;5096147;28;20183;-80
2023/05/08 12:29:26;;;;;;;7.80;7.10;;;15.10;99.90;;;;;;5096186;28;20202;-80
2023/05/08 12:31:53;;;;;;;9.57;7.63;;;15.10;99.90;;;;;;5096411;28;20647;-80
2023/05/08 12:34:19;;;;;;;8.30;7.40;;;15.20;99.90;;;;;;5095180;28;20174;-81
2023/05/08 12:36:45;;;;;;;8.83;7.77;;;15.20;99.90;;;;;;5096488;28;20310;-82
2023/05/08 12:39:17;;;;;;;9.20;8.30;;;15.20;99.90;;;;;;5096572;28;20540;-81
2023/05/08 12:41:48;;;;;;;9.20;8.30;;;15.30;99.90;;;;;;5097308;28;20203;-81
2023/05/08 12:44:22;;;;;;;9.43;8.53;;;15.30;99.90;;;;;;5101192;28;20177;-81
2023/05/08 12:46:50;;;;;;;11.50;10.07;;;15.30;99.90;;;;;;5100419;28;20172;-81
2023/05/08 12:49:28;;;;;;;10.00;8.80;;;15.30;99.90;;;;;;5100304;28;20197;-81
2023/05/08 12:52:05;;;;;;;10.63;9.53;;;15.30;99.90;;;;;;5099428;28;20635;-81
2023/05/08 12:54:35;;;;;;;16.60;9.50;;;15.40;99.90;;;;;;5101306;28;20168;-81
2023/05/08 12:57:09;;;;;;;10.97;9.57;;;15.40;99.90;;;;;;5100098;28;20644;-82
2023/05/08 12:59:34;;;;;;;11.63;10.03;;;15.40;99.90;;;;;;5101296;28;20607;-81
2023/05/08 13:02:00;;;;;;;13.50;10.17;;;15.30;99.90;;;;;;5101075;28;20196;-80
2023/05/08 13:04:26;;;;;;;11.00;9.90;;;15.40;99.90;;;;;;5099407;28;20207;-80
2023/05/08 13:06:56;;;;;;;14.73;11.03;;;15.60;99.90;;;;;;5100945;28;20200;-81
2023/05/08 13:09:22;;;;;;;14.50;11.67;;;15.70;99.90;;;;;;5099287;28;20566;-81
2023/05/08 13:11:48;;;;;;;15.33;11.53;;;15.80;99.90;;;;;;5100599;28;20182;-82
2023/05/08 13:14:14;;;;;;;12.97;10.47;;;15.80;99.90;;;;;;5100637;28;20629;-81
2023/05/08 13:16:44;;;;;;;12.47;10.70;;;16.00;99.90;;;;;;5098845;28;20211;-82
2023/05/08 13:19:10;;;;;;;12.77;10.73;;;16.10;99.90;;;;;;5099994;28;20340;-81
2023/05/08 13:21:35;;;;;;;16.70;10.77;;;16.10;99.90;;;;;;5098854;28;20650;-82
2023/05/08 13:24:01;;;;;;;14.10;10.73;;;16.10;99.90;;;;;;5099354;28;20229;-82
2023/05/08 13:26:26;;;;;;;12.43;11.13;;;15.90;99.90;;;;;;5098761;28;20245;-82
2023/05/08 13:28:52;;;;;;;11.90;10.07;;;15.90;99.90;;;;;;5099794;28;20223;-82
2023/05/08 13:31:18;;;;;;;13.37;11.30;;;15.70;99.90;;;;;;5098324;28;20205;-81
2023/05/08 13:33:43;;;;;;;14.13;10.03;;;15.60;99.90;;;;;;5100355;28;20287;-82
2023/05/08 13:36:09;;;;;;;11.73;10.47;;;15.50;99.90;;;;;;5099256;28;20204;-81
2023/05/08 13:38:35;;;;;;;11.37;10.17;;;15.50;99.90;;;;;;5100755;28;20598;-80
2023/05/08 13:41:00;;;;;;;12.70;10.90;;;15.40;99.90;;;;;;5099395;28;20188;-82
2023/05/08 13:43:26;;;;;;;12.90;10.33;;;15.30;99.90;;;;;;5100554;28;20259;-81
2023/05/08 13:45:52;;;;;;;11.57;10.37;;;15.30;99.90;;;;;;5100637;28;20656;-82
2023/05/08 13:48:18;;;;;;;14.23;10.87;;;15.20;99.90;;;;;;5099543;28;20200;-82
2023/05/08 13:50:44;;;;;;;12.87;10.60;;;15.30;99.90;;;;;;5099225;28;20226;-81
2023/05/08 13:53:10;;;;;;;14.73;11.43;;;15.30;99.90;;;;;;5100696;28;20656;-81
2023/05/08 13:55:35;;;;;;;13.57;11.37;;;15.30;99.90;;;;;;5100316;28;20216;-81
2023/05/08 13:58:01;;;;;;;13.43;11.37;;;15.20;99.90;;;;;;5106269;28;20222;-80
2023/05/08 14:00:27;;;;;;;12.40;10.83;;;15.10;99.90;;;;;;5098276;28;20184;-82
2023/05/08 14:02:52;;;;;;;13.83;11.53;;;15.00;99.90;;;;;;5099203;28;20227;-81
2023/05/08 14:05:18;;;;;;;13.50;12.10;;;15.00;99.90;;;;;;5098784;28;20180;-81
2023/05/08 14:07:44;;;;;;;15.20;13.37;;;14.80;99.90;;;;;;5099085;28;20206;-80
2023/05/08 14:10:10;;;;;;;16.67;14.53;;;14.90;99.90;;;;;;5097188;28;20173;-80
2023/05/08 14:12:36;;;;;;;21.20;13.43;;;14.80;99.90;;;;;;5098944;28;20509;-81
2023/05/08 14:15:03;;;;;;;20.13;14.57;;;14.70;99.90;;;;;;5097568;28;20236;-81
2023/05/08 14:17:29;;;;;;;17.90;14.43;;;14.70;99.90;;;;;;5099229;28;20169;-81
2023/05/08 14:35:51;;;;;;;21.37;16.40;;;14.50;99.90;;;;;;5094211;28;20541;-80
2023/05/08 14:44:32;;;;;;;19.57;15.33;;;14.30;99.90;;;;;;5134974;27;20282;-80
2023/05/08 14:53:40;;;;;;;19.93;15.40;;;14.00;99.90;;;;;;5135492;27;20276;-79
2023/05/08 15:02:28;;;;;;;22.87;15.80;;;;;;;;;;5135450;27;20276;-80
2023/05/08 15:11:06;;;;;;;22.13;16.27;;;14.00;99.90;;;;;;5135106;27;20301;-80
2023/05/08 15:18:10;;;;;;;18.97;14.60;;;14.10;99.90;;;;;;5074637;28;20571;-80
2023/05/08 15:25:06;;;;;;;15.90;12.63;;;13.80;99.90;;;;;;5136530;27;20273;-81
2023/05/08 15:31:58;;;;;;;17.57;12.60;;;14.00;99.90;;;;;;5136203;27;20275;-80
2023/05/08 15:38:15;;;;;;;15.23;12.33;;;13.90;99.90;;;;;;5136052;27;20295;-80
2023/05/08 15:43:20;;;;;;;18.73;12.87;;;13.90;99.90;;;;;;5157248;27;20545;-79
2023/05/08 15:47:44;;;;;;;18.70;14.23;;;;;;;;;;5136366;27;20289;-79
2023/05/08 15:52:27;;;;;;;16.53;13.17;;;;;;;;;;5113553;27;21014;-79
2023/05/08 15:57:18;;;;;;;19.00;14.33;;;;;;;;;;5094122;28;20944;-79
2023/05/08 16:01:17;;;;;;;16.17;14.00;;;14.30;99.90;;;;;;5133881;27;20646;-79
2023/05/08 16:05:20;;;;;;;19.83;14.27;;;14.30;99.90;;;;;;5135661;27;20271;-79
2023/05/08 16:09:29;;;;;;;16.90;13.93;;;14.30;99.90;;;;;;5134044;27;20642;-79
2023/05/08 16:14:48;;;;;;;19.60;14.60;;;14.30;99.90;;;;;;5134652;27;20271;-79
2023/05/08 16:19:41;;;;;;;19.43;14.43;;;14.40;99.90;;;;;;5094026;27;20520;-79
2023/05/08 16:24:22;;;;;;;17.90;14.70;;;14.40;99.90;;;;;;5134905;27;20268;-79
2023/05/08 16:27:59;;;;;;;20.43;16.13;;;14.60;99.90;;;;;;5134760;27;20799;-80
2023/05/08 16:31:50;;;;;;;18.90;15.13;;;14.70;99.90;;;;;;5152697;27;20280;-79
2023/05/08 16:35:39;;;;;;;21.50;15.03;;;14.80;99.90;;;;;;5134893;27;20271;-80
2023/05/08 16:38:05;;;;;;;18.63;14.80;;;14.80;99.90;;;;;;5133924;28;20755;-79
2023/05/08 16:41:47;;;;;;;20.10;15.27;;;14.80;99.90;;;;;;5113321;27;20568;-79
2023/05/08 16:46:16;;;;;;;20.57;15.07;;;14.70;99.90;;;;;;5134653;27;20286;-80
2023/05/08 16:50:58;;;;;;;21.23;15.60;;;14.70;99.90;;;;;;5111133;27;20276;-77
2023/05/08 16:56:57;;;;;;;19.70;16.70;;;14.40;99.90;;;;;;5093591;27;20284;-81
2023/05/08 17:27:14;;;;;;;20.87;16.60;;;14.10;99.90;;;;;;5154820;27;20262;-79
